Accueil
METAR-TAF:

METAR-TAF

Aéroports :

Aéroport de Sherbrooke

Sherbrooke, Québec, Canada

latitude: 45-24N, longitude: 071-53W, altitude: 170 m

Observation

Le bulletin a été fait il y a 21 minutes, à 03:00 UTC
Vent 2 kt de est
Température 14°C
Humidité 100%
Pression 1015 hPa
Visibilité: 14.5 km
Ciel clair

METAR: CYSC 190300Z AUTO 09002KT 9SM CLR 14/14 A2998 RMK SLP154 DENSITY ALT 800FT

Heure: 23:21 (03:21 UTC)

Prévision

Le bulletin a été fait il y a 3 heures et 43 minutes, à 23:38 UTC
Prévision valable du 19 à 00 UTC au 19 à 03 UTC
Vent 5 kt de nord-est
Visibilité: 10 km
Quelques nuages à une hauteur de 25000 ft
Temporairement
du 19 à 02 UTC au 19 à 03 UTC
Visibilité: 1.2 km
brume

TAF: CYSC 182338Z 1900/1903 04005KT P6SM FEW250 TEMPO 1902/1903 3/4SM BR RMK FCST BASED ON AUTO OBS. NXT FCST WILL BE ISSUED AT 191045Z

Observations et prévisions météorologiques de plus de 4000 aéroports (messages METAR et TAF).

Les stations disponibles sont représentées par des disques jaunes et rouges sur la carte.

Passer la souris dessus pour voir le nom de la station.

Cliquer dessus pour voir les observations et prévisions météorologiques.

Pour changer de carte: cliquez sur les boutons verts avec une croix noire pour zoomer, sur le bouton vert avec un tiret pour effectuer un zoom arrière, ou sur les flèches vertes pour les cartes adjacentes.


METAR-TAF: